Time;durP1;ratioP1;P1;durP2;ratioP2;P2;SDS_P1;SDS_P2;PMS_P1;PMS_P2;Temp;Humidity;BMP_temperature;BMP_pressure;BME280_temperature;BME280_humidity;BME280_pressure;Samples;Min_cycle;Max_cycle;Signal;HPM_P1;HPM_P2
2024/03/14 00:01:36;;;;;;;198.43;188.45;;;;;;;;;;5118159;27;20083;-54
2024/03/14 00:04:03;;;;;;;195.95;186.25;;;;;;;;;;5118133;27;20039;-56
2024/03/14 00:06:29;;;;;;;181.07;172.10;;;;;;;;;;5116538;27;20031;-56
2024/03/14 00:08:55;;;;;;;182.13;173.10;;;;;;;;;;5117257;27;20331;-56
2024/03/14 00:11:21;;;;;;;183.55;174.38;;;;;;;;;;5119483;27;20120;-56
2024/03/14 00:13:46;;;;;;;185.27;176.07;;;;;;;;;;5118070;27;20061;-55
2024/03/14 00:16:13;;;;;;;197.52;187.70;;;;;;;;;;5117010;27;20032;-56
2024/03/14 00:18:39;;;;;;;191.18;181.57;;;;;;;;;;5114252;27;20039;-56
2024/03/14 00:21:09;;;;;;;200.98;190.95;;;;;;;;;;5114779;27;20114;-56
2024/03/14 00:23:36;;;;;;;182.65;173.45;;;;;;;;;;5113562;27;20468;-56
2024/03/14 00:26:01;;;;;;;187.75;178.40;;;;;;;;;;5115262;27;20042;-56
2024/03/14 00:28:26;;;;;;;188.93;179.52;;;;;;;;;;5115724;27;20472;-56
2024/03/14 00:30:51;;;;;;;185.57;176.30;;;;;;;;;;5112839;27;20031;-51
2024/03/14 00:33:17;;;;;;;188.18;178.80;;;;;;;;;;5116132;27;20080;-51
2024/03/14 00:35:42;;;;;;;191.20;181.63;;;;;;;;;;5114770;27;20135;-51
2024/03/14 00:38:08;;;;;;;194.90;185.18;;;;;;;;;;5114929;27;20053;-50
2024/03/14 00:40:35;;;;;;;185.60;176.10;;;;;;;;;;5113158;27;20035;-49
2024/03/14 00:43:02;;;;;;;185.55;176.27;;;;;;;;;;5114608;27;20028;-50
2024/03/14 00:45:27;;;;;;;191.73;182.18;;;;;;;;;;5116630;27;20066;-49
2024/03/14 00:47:53;;;;;;;191.35;181.88;;;;;;;;;;5113999;27;20063;-50
2024/03/14 00:50:19;;;;;;;189.90;180.43;;;;;;;;;;5094151;27;20070;-51
2024/03/14 00:52:45;;;;;;;197.43;187.57;;;;;;;;;;5114897;27;20047;-52
2024/03/14 00:55:11;;;;;;;190.27;180.43;;;;;;;;;;5096533;27;20036;-53
2024/03/14 00:57:36;;;;;;;195.55;185.55;;;;;;;;;;5115644;27;20484;-52
2024/03/14 01:00:11;;;;;;;201.70;191.63;;;;;;;;;;5108947;27;20084;-51
2024/03/14 01:02:37;;;;;;;191.93;182.35;;;;;;;;;;5111055;27;20494;-51
2024/03/14 01:05:04;;;;;;;197.57;187.73;;;;;;;;;;5113905;27;20035;-47
2024/03/14 01:07:30;;;;;;;197.38;187.48;;;;;;;;;;5114333;27;20035;-48
2024/03/14 01:09:55;;;;;;;179.95;170.85;;;;;;;;;;5095155;27;20482;-49
2024/03/14 01:12:21;;;;;;;183.82;174.63;;;;;;;;;;5113967;27;20031;-48
2024/03/14 01:14:46;;;;;;;177.77;168.90;;;;;;;;;;5116680;27;20348;-49
2024/03/14 01:17:11;;;;;;;182.50;173.20;;;;;;;;;;5115422;27;20039;-49
2024/03/14 01:19:37;;;;;;;172.80;164.13;;;;;;;;;;5112657;27;20461;-51
2024/03/14 01:22:03;;;;;;;177.27;168.40;;;;;;;;;;5116186;27;20091;-48
2024/03/14 01:24:29;;;;;;;180.60;171.57;;;;;;;;;;5114072;27;21011;-51
2024/03/14 01:26:57;;;;;;;186.93;177.57;;;;;;;;;;5113596;27;20031;-50
2024/03/14 01:29:25;;;;;;;181.90;172.80;;;;;;;;;;5111555;27;20135;-52
2024/03/14 01:31:50;;;;;;;174.00;165.23;;;;;;;;;;5114264;27;20122;-51
2024/03/14 01:34:16;;;;;;;181.82;172.75;;;;;;;;;;5113942;27;20122;-50
2024/03/14 01:36:41;;;;;;;182.05;172.95;;;;;;;;;;5115610;27;21066;-52
2024/03/14 01:39:11;;;;;;;183.50;174.40;;;;;;;;;;5113032;27;20061;-54
2024/03/14 01:41:36;;;;;;;185.40;176.18;;;;;;;;;;5076726;27;20062;-53
2024/03/14 01:44:02;;;;;;;177.07;168.23;;;;;;;;;;5112933;27;20066;-51
2024/03/14 01:46:31;;;;;;;179.93;170.93;;;;;;;;;;5112189;27;20046;-51
2024/03/14 01:48:57;;;;;;;182.52;173.52;;;;;;;;;;5094982;28;20096;-50
2024/03/14 01:51:24;;;;;;;180.77;171.70;;;;;;;;;;5114899;27;20027;-51
2024/03/14 01:53:50;;;;;;;181.45;172.40;;;;;;;;;;5112911;27;20122;-54
2024/03/14 01:56:17;;;;;;;182.60;173.48;;;;;;;;;;5118564;27;20118;-53
2024/03/14 01:58:43;;;;;;;194.90;185.23;;;;;;;;;;5112137;27;20027;-50
2024/03/14 02:01:12;;;;;;;190.15;180.65;;;;;;;;;;5095099;27;20055;-53
2024/03/14 02:03:38;;;;;;;180.07;171.07;;;;;;;;;;5110924;27;20039;-52
2024/03/14 02:06:12;;;;;;;183.57;174.40;;;;;;;;;;5114646;27;20232;-51
2024/03/14 02:08:38;;;;;;;183.65;174.55;;;;;;;;;;5111411;27;20035;-52
2024/03/14 02:11:04;;;;;;;173.65;164.93;;;;;;;;;;5116010;27;20046;-50
2024/03/14 02:13:30;;;;;;;178.25;169.30;;;;;;;;;;5116709;27;20023;-50
2024/03/14 02:15:55;;;;;;;179.25;170.25;;;;;;;;;;5113972;27;20038;-50
2024/03/14 02:18:20;;;;;;;173.32;164.63;;;;;;;;;;5095690;27;20042;-52
2024/03/14 02:20:46;;;;;;;181.45;172.48;;;;;;;;;;5095435;27;20115;-53
2024/03/14 02:23:12;;;;;;;170.90;162.30;;;;;;;;;;5116231;27;20032;-49
2024/03/14 02:25:37;;;;;;;166.27;157.95;;;;;;;;;;5115210;27;20035;-51
2024/03/14 02:28:03;;;;;;;172.48;163.82;;;;;;;;;;5112934;27;20019;-49
2024/03/14 02:30:28;;;;;;;178.27;169.35;;;;;;;;;;5113383;27;20039;-53
2024/03/14 02:32:54;;;;;;;184.60;175.27;;;;;;;;;;5107720;27;20464;-51
2024/03/14 02:35:19;;;;;;;182.52;173.43;;;;;;;;;;5115136;27;20722;-52
2024/03/14 02:37:45;;;;;;;184.90;175.07;;;;;;;;;;5116974;27;20432;-52
2024/03/14 02:40:11;;;;;;;194.55;184.82;;;;;;;;;;5116560;27;20046;-48
2024/03/14 02:42:37;;;;;;;184.25;175.02;;;;;;;;;;5111733;27;20440;-50
2024/03/14 02:45:06;;;;;;;187.48;178.13;;;;;;;;;;5117307;27;20028;-52
2024/03/14 02:47:31;;;;;;;178.07;169.18;;;;;;;;;;5096892;28;20027;-50
2024/03/14 02:49:57;;;;;;;189.13;179.60;;;;;;;;;;5095034;28;20062;-51
2024/03/14 02:52:22;;;;;;;192.40;182.13;;;;;;;;;;5095657;28;21070;-48
2024/03/14 02:54:48;;;;;;;168.65;160.15;;;;;;;;;;5110487;28;20042;-50
2024/03/14 02:57:13;;;;;;;163.40;155.23;;;;;;;;;;5097707;28;20026;-51
2024/03/14 02:59:39;;;;;;;164.45;156.23;;;;;;;;;;5113880;28;20864;-52
2024/03/14 03:02:10;;;;;;;171.88;161.88;;;;;;;;;;5117241;28;20083;-52
2024/03/14 03:04:36;;;;;;;168.57;160.15;;;;;;;;;;5113302;28;20085;-48
2024/03/14 03:07:05;;;;;;;169.60;161.10;;;;;;;;;;5114491;28;20103;-52
2024/03/14 03:09:31;;;;;;;164.70;156.48;;;;;;;;;;5114465;28;20541;-50
2024/03/14 03:11:57;;;;;;;166.23;157.88;;;;;;;;;;5117645;28;20046;-51
2024/03/14 03:14:23;;;;;;;165.35;157.00;;;;;;;;;;5116240;28;20504;-51
2024/03/14 03:16:49;;;;;;;165.38;157.05;;;;;;;;;;5113179;28;20043;-49
2024/03/14 03:19:14;;;;;;;171.10;162.43;;;;;;;;;;5115796;28;20453;-50
2024/03/14 03:21:40;;;;;;;161.07;152.95;;;;;;;;;;5114949;28;20031;-49
2024/03/14 03:24:08;;;;;;;167.10;158.70;;;;;;;;;;5113873;28;20054;-51
2024/03/14 03:26:34;;;;;;;158.35;150.30;;;;;;;;;;5113726;28;20080;-47
2024/03/14 03:29:02;;;;;;;161.07;153.05;;;;;;;;;;5114847;28;20545;-52
2024/03/14 03:31:28;;;;;;;158.98;150.98;;;;;;;;;;5115586;28;20376;-48
2024/03/14 03:33:53;;;;;;;160.57;152.27;;;;;;;;;;5111317;28;20027;-50
2024/03/14 03:36:22;;;;;;;158.93;151.02;;;;;;;;;;5113560;28;20119;-47
2024/03/14 03:38:48;;;;;;;160.85;152.75;;;;;;;;;;5110547;28;20054;-49
2024/03/14 03:41:13;;;;;;;165.07;156.73;;;;;;;;;;5116507;28;20032;-49
2024/03/14 03:43:39;;;;;;;162.68;154.55;;;;;;;;;;5115168;28;20049;-48
2024/03/14 03:46:06;;;;;;;166.40;158.00;;;;;;;;;;5113191;28;20357;-52
2024/03/14 03:48:38;;;;;;;155.63;147.82;;;;;;;;;;5112156;28;20063;-51
2024/03/14 03:51:04;;;;;;;151.98;144.30;;;;;;;;;;5113477;28;20341;-47
2024/03/14 03:53:32;;;;;;;148.02;140.57;;;;;;;;;;5113831;27;20043;-48
2024/03/14 03:55:58;;;;;;;150.60;143.07;;;;;;;;;;5118095;27;20031;-50
2024/03/14 03:58:23;;;;;;;158.15;150.10;;;;;;;;;;5117808;27;20038;-48
2024/03/14 04:00:52;;;;;;;150.40;142.90;;;;;;;;;;5116879;27;20031;-48
2024/03/14 04:03:20;;;;;;;158.55;150.65;;;;;;;;;;5114442;27;20110;-48
2024/03/14 04:05:45;;;;;;;154.38;146.63;;;;;;;;;;5115778;27;20092;-50
2024/03/14 04:08:14;;;;;;;162.05;153.95;;;;;;;;;;5099117;27;20028;-52
2024/03/14 04:10:40;;;;;;;168.05;159.68;;;;;;;;;;5117886;27;20390;-53
2024/03/14 04:13:05;;;;;;;158.68;150.73;;;;;;;;;;5115619;27;20039;-53
2024/03/14 04:15:31;;;;;;;160.18;152.13;;;;;;;;;;5116324;27;20035;-51
2024/03/14 04:17:57;;;;;;;163.23;155.05;;;;;;;;;;5117253;27;20243;-53
2024/03/14 04:20:26;;;;;;;157.20;149.40;;;;;;;;;;5116355;27;20040;-52
2024/03/14 04:22:54;;;;;;;148.80;141.38;;;;;;;;;;5090452;27;20092;-53
2024/03/14 04:25:20;;;;;;;151.50;143.90;;;;;;;;;;5116767;27;20132;-50
2024/03/14 04:27:53;;;;;;;154.82;147.18;;;;;;;;;;5114801;27;20130;-56
2024/03/14 04:30:23;;;;;;;149.10;141.70;;;;;;;;;;5115365;27;20039;-54
2024/03/14 04:32:49;;;;;;;150.57;142.90;;;;;;;;;;5112230;27;20103;-48
2024/03/14 04:35:15;;;;;;;152.80;144.90;;;;;;;;;;5117412;27;20420;-49
2024/03/14 04:37:47;;;;;;;154.15;146.32;;;;;;;;;;5114094;27;20039;-49
2024/03/14 04:40:19;;;;;;;156.90;149.10;;;;;;;;;;5112798;27;20107;-50
2024/03/14 04:42:46;;;;;;;158.85;150.90;;;;;;;;;;5099455;27;20027;-49
2024/03/14 04:45:20;;;;;;;153.05;145.43;;;;;;;;;;5117097;27;20019;-52
2024/03/14 04:47:47;;;;;;;151.63;144.05;;;;;;;;;;5114385;27;20095;-51
2024/03/14 04:50:18;;;;;;;154.43;146.63;;;;;;;;;;5113604;27;20472;-55
2024/03/14 04:52:45;;;;;;;146.77;139.48;;;;;;;;;;5113818;27;20035;-51
2024/03/14 04:55:11;;;;;;;157.20;149.35;;;;;;;;;;5112838;27;20039;-51
2024/03/14 04:57:40;;;;;;;147.80;140.43;;;;;;;;;;5095186;27;20597;-53
2024/03/14 05:02:49;;;;;;;139.48;132.45;;;;;;;;;;5114244;27;20035;-50
2024/03/14 05:05:15;;;;;;;142.80;135.70;;;;;;;;;;5117241;27;20054;-53
2024/03/14 05:07:40;;;;;;;139.55;132.60;;;;;;;;;;5115511;27;20031;-50
2024/03/14 05:10:07;;;;;;;141.48;134.48;;;;;;;;;;5114164;27;20039;-48
2024/03/14 05:12:32;;;;;;;144.95;137.65;;;;;;;;;;5115853;27;20055;-52
2024/03/14 05:14:58;;;;;;;148.35;140.75;;;;;;;;;;5115025;27;20074;-51
2024/03/14 05:17:24;;;;;;;143.43;136.30;;;;;;;;;;5132190;27;20106;-53
2024/03/14 05:19:50;;;;;;;153.02;145.38;;;;;;;;;;5115286;27;20452;-52
2024/03/14 05:22:18;;;;;;;146.93;139.48;;;;;;;;;;5115713;27;20091;-53
2024/03/14 05:24:44;;;;;;;142.93;135.77;;;;;;;;;;5115876;27;20051;-48
2024/03/14 05:27:09;;;;;;;150.27;142.75;;;;;;;;;;5113676;27;20031;-51
2024/03/14 05:29:36;;;;;;;148.82;141.45;;;;;;;;;;5098181;27;20468;-50
2024/03/14 05:32:02;;;;;;;137.65;130.63;;;;;;;;;;5113367;27;20114;-56
2024/03/14 05:34:27;;;;;;;140.30;133.30;;;;;;;;;;5098358;27;20122;-56
2024/03/14 05:36:52;;;;;;;137.20;130.30;;;;;;;;;;5112392;27;20027;-56
2024/03/14 05:39:21;;;;;;;137.60;130.65;;;;;;;;;;5114875;27;20043;-54
2024/03/14 05:41:47;;;;;;;133.13;126.43;;;;;;;;;;5096562;27;20074;-52
2024/03/14 05:44:12;;;;;;;124.03;117.80;;;;;;;;;;5114120;27;20686;-54
2024/03/14 05:46:38;;;;;;;127.43;121.10;;;;;;;;;;5112718;27;20035;-56
2024/03/14 05:49:03;;;;;;;127.65;121.28;;;;;;;;;;5110149;27;20395;-57
2024/03/14 05:51:29;;;;;;;127.35;120.95;;;;;;;;;;5113933;27;20583;-53
2024/03/14 05:53:55;;;;;;;129.27;122.72;;;;;;;;;;5095083;27;20103;-53
2024/03/14 05:56:20;;;;;;;122.22;116.13;;;;;;;;;;5113144;27;20038;-52
2024/03/14 05:58:45;;;;;;;122.28;116.10;;;;;;;;;;5114753;27;20145;-53
2024/03/14 06:01:11;;;;;;;130.27;123.65;;;;;;;;;;5115052;27;20035;-49
2024/03/14 06:03:39;;;;;;;124.97;118.72;;;;;;;;;;5114568;27;20034;-50
2024/03/14 06:06:04;;;;;;;115.57;109.80;;;;;;;;;;5113020;27;20027;-50
2024/03/14 06:08:30;;;;;;;111.95;106.40;;;;;;;;;;5113752;27;20046;-51
2024/03/14 06:10:55;;;;;;;118.30;112.40;;;;;;;;;;5113053;27;20590;-49
2024/03/14 06:13:21;;;;;;;124.88;118.65;;;;;;;;;;5115984;27;20036;-54
2024/03/14 06:15:48;;;;;;;121.82;115.75;;;;;;;;;;5112149;27;20377;-54
2024/03/14 06:18:13;;;;;;;122.72;116.07;;;;;;;;;;5114540;27;20035;-49
2024/03/14 06:20:41;;;;;;;120.15;114.15;;;;;;;;;;5115208;27;20091;-51
2024/03/14 06:23:06;;;;;;;112.18;106.55;;;;;;;;;;5113449;27;20568;-50
2024/03/14 06:25:32;;;;;;;114.53;108.80;;;;;;;;;;5113006;27;20053;-53
2024/03/14 06:27:57;;;;;;;124.18;117.55;;;;;;;;;;5111883;27;20035;-49
2024/03/14 06:30:23;;;;;;;117.13;111.18;;;;;;;;;;5110762;27;20035;-53
2024/03/14 06:32:49;;;;;;;119.82;113.82;;;;;;;;;;5113614;27;20042;-54
2024/03/14 06:35:15;;;;;;;115.35;109.57;;;;;;;;;;5111649;27;20409;-55
2024/03/14 06:37:41;;;;;;;108.03;102.53;;;;;;;;;;5109863;27;20998;-51
2024/03/14 06:40:08;;;;;;;114.78;109.03;;;;;;;;;;5085885;28;20027;-52
2024/03/14 06:42:33;;;;;;;108.38;103.00;;;;;;;;;;5105836;27;20030;-53
2024/03/14 06:45:10;;;;;;;261.33;247.15;;;;;;;;;;5102489;27;20031;-54
2024/03/14 06:47:36;;;;;;;116.07;110.32;;;;;;;;;;5089982;28;20067;-52
2024/03/14 06:50:03;;;;;;;122.20;116.18;;;;;;;;;;5104333;28;20288;-52
2024/03/14 06:52:28;;;;;;;123.78;117.63;;;;;;;;;;5111324;28;20501;-55
2024/03/14 06:54:54;;;;;;;139.23;132.27;;;;;;;;;;5112979;28;20031;-53
2024/03/14 06:57:20;;;;;;;135.95;129.10;;;;;;;;;;5115885;28;20426;-52
2024/03/14 06:59:48;;;;;;;136.40;129.45;;;;;;;;;;5113944;28;20047;-51
2024/03/14 07:02:18;;;;;;;146.02;138.77;;;;;;;;;;5113349;28;20019;-49
2024/03/14 07:04:43;;;;;;;146.45;139.10;;;;;;;;;;5096679;28;20035;-50
2024/03/14 07:07:11;;;;;;;137.57;130.73;;;;;;;;;;5095236;28;20036;-52
2024/03/14 07:09:37;;;;;;;144.30;136.93;;;;;;;;;;5112318;28;20116;-49
2024/03/14 07:12:03;;;;;;;161.77;153.75;;;;;;;;;;5114784;28;20035;-53
2024/03/14 07:14:29;;;;;;;156.50;148.73;;;;;;;;;;5112551;28;20047;-55
2024/03/14 07:16:54;;;;;;;157.95;149.90;;;;;;;;;;5112607;28;20027;-52
2024/03/14 07:19:22;;;;;;;161.77;153.73;;;;;;;;;;5111511;28;20039;-52
2024/03/14 07:21:53;;;;;;;164.95;156.70;;;;;;;;;;5114215;28;20040;-53
2024/03/14 07:24:23;;;;;;;155.80;147.98;;;;;;;;;;5114400;28;20578;-51
2024/03/14 07:26:48;;;;;;;165.25;157.05;;;;;;;;;;5115687;28;20326;-51
2024/03/14 07:29:14;;;;;;;177.90;169.05;;;;;;;;;;5114983;27;20039;-54
2024/03/14 07:31:43;;;;;;;179.77;170.77;;;;;;;;;;5119151;27;20366;-52
2024/03/14 07:34:10;;;;;;;178.15;169.25;;;;;;;;;;5114128;27;20224;-51
2024/03/14 07:36:41;;;;;;;177.55;168.75;;;;;;;;;;5119708;27;20054;-54
2024/03/14 07:39:10;;;;;;;155.77;148.00;;;;;;;;;;5117171;27;20035;-51
2024/03/14 07:41:39;;;;;;;172.30;163.73;;;;;;;;;;5086331;27;20042;-53
2024/03/14 07:44:05;;;;;;;181.80;172.63;;;;;;;;;;5119724;27;20050;-50
2024/03/14 07:46:31;;;;;;;189.15;179.63;;;;;;;;;;5119237;27;20035;-51
2024/03/14 07:48:56;;;;;;;183.90;174.85;;;;;;;;;;5118708;27;20064;-49
2024/03/14 07:51:22;;;;;;;187.90;178.48;;;;;;;;;;5119053;27;20159;-49
2024/03/14 07:53:47;;;;;;;199.05;189.25;;;;;;;;;;5115918;27;20342;-47
2024/03/14 07:56:13;;;;;;;189.20;179.73;;;;;;;;;;5116837;27;20035;-48
2024/03/14 07:58:39;;;;;;;197.73;187.93;;;;;;;;;;5099138;28;20441;-49
2024/03/14 08:01:10;;;;;;;195.68;185.95;;;;;;;;;;5117472;27;21147;-49
2024/03/14 08:03:38;;;;;;;156.73;148.70;;;;;;;;;;5119580;27;20720;-51
2024/03/14 08:06:07;;;;;;;159.65;151.65;;;;;;;;;;5115886;27;20067;-49
2024/03/14 08:08:33;;;;;;;137.85;130.90;;;;;;;;;;5114155;27;20035;-52
2024/03/14 08:10:58;;;;;;;127.03;120.55;;;;;;;;;;5117737;27;20099;-51
2024/03/14 08:13:23;;;;;;;139.82;132.73;;;;;;;;;;5116748;27;20031;-52
2024/03/14 08:15:59;;;;;;;147.35;140.00;;;;;;;;;;5118098;27;20607;-52
2024/03/14 08:18:25;;;;;;;133.05;126.40;;;;;;;;;;5115589;27;20140;-49
2024/03/14 08:20:53;;;;;;;120.03;114.03;;;;;;;;;;5117332;27;20803;-50
2024/03/14 08:23:20;;;;;;;105.40;99.97;;;;;;;;;;5097059;27;20372;-51
2024/03/14 08:25:46;;;;;;;98.03;93.05;;;;;;;;;;5117250;27;20519;-51
2024/03/14 08:28:12;;;;;;;134.77;128.05;;;;;;;;;;5081667;27;20506;-48
2024/03/14 08:30:39;;;;;;;102.20;97.13;;;;;;;;;;5114809;27;20027;-52
2024/03/14 08:33:05;;;;;;;78.82;74.63;;;;;;;;;;5114083;27;20065;-51
2024/03/14 08:35:32;;;;;;;79.18;75.18;;;;;;;;;;5117702;27;20487;-53
2024/03/14 08:37:57;;;;;;;97.05;92.20;;;;;;;;;;5115305;27;20035;-53
2024/03/14 08:40:23;;;;;;;97.75;92.85;;;;;;;;;;5117086;27;20135;-50
2024/03/14 08:42:48;;;;;;;60.17;57.10;;;;;;;;;;5116941;27;20118;-51
2024/03/14 08:45:15;;;;;;;75.10;71.30;;;;;;;;;;5098991;27;20678;-53
2024/03/14 08:47:42;;;;;;;37.58;35.55;;;;;;;;;;5118363;27;20599;-49
2024/03/14 08:50:09;;;;;;;42.33;39.85;;;;;;;;;;5116912;27;20039;-52
2024/03/14 08:52:37;;;;;;;42.67;39.97;;;;;;;;;;5115212;27;20027;-51
2024/03/14 08:55:23;;;;;;;37.22;35.30;;;;;;;;;;5098466;27;20102;-51
2024/03/14 08:57:49;;;;;;;60.90;57.33;;;;;;;;;;5115132;27;20144;-50
2024/03/14 09:00:17;;;;;;;50.88;48.15;;;;;;;;;;5117468;27;20674;-51
2024/03/14 09:02:43;;;;;;;53.80;50.60;;;;;;;;;;5117007;27;20061;-52
2024/03/14 09:05:11;;;;;;;40.10;38.00;;;;;;;;;;5117194;27;20035;-49
2024/03/14 09:07:40;;;;;;;41.53;39.03;;;;;;;;;;5115517;27;20062;-51
2024/03/14 09:10:15;;;;;;;42.30;39.88;;;;;;;;;;5118833;27;20579;-50
2024/03/14 09:12:43;;;;;;;46.03;43.65;;;;;;;;;;5099889;27;20046;-49
2024/03/14 09:15:09;;;;;;;46.50;44.00;;;;;;;;;;5096823;28;20039;-48
2024/03/14 09:17:35;;;;;;;46.67;44.17;;;;;;;;;;5115076;27;20047;-50
2024/03/14 09:20:05;;;;;;;38.95;36.72;;;;;;;;;;5116192;27;20035;-52
2024/03/14 09:22:31;;;;;;;42.60;40.38;;;;;;;;;;5111539;27;20514;-48
2024/03/14 09:24:57;;;;;;;40.90;38.78;;;;;;;;;;5116659;27;20042;-52
2024/03/14 09:27:23;;;;;;;45.67;43.33;;;;;;;;;;5116638;27;20032;-52
2024/03/14 09:29:54;;;;;;;36.63;34.65;;;;;;;;;;5099749;27;20112;-52
2024/03/14 09:32:20;;;;;;;41.50;39.25;;;;;;;;;;5115919;27;20448;-52
2024/03/14 09:34:45;;;;;;;41.92;39.72;;;;;;;;;;5115918;27;20035;-52
2024/03/14 09:37:12;;;;;;;39.85;37.65;;;;;;;;;;5115838;27;20043;-52
2024/03/14 09:39:37;;;;;;;42.97;40.67;;;;;;;;;;5114814;27;20063;-47
2024/03/14 09:42:03;;;;;;;38.75;36.72;;;;;;;;;;5095998;27;20066;-49
2024/03/14 09:44:29;;;;;;;39.15;37.05;;;;;;;;;;5116625;27;20053;-50
2024/03/14 09:47:33;;;;;;;40.45;38.25;;;;;;;;;;5095186;27;20077;-47
2024/03/14 09:50:04;;;;;;;38.70;36.50;;;;;;;;;;5060070;27;20044;-50
2024/03/14 09:52:33;;;;;;;37.58;35.42;;;;;;;;;;5112695;27;20022;-48
2024/03/14 09:55:01;;;;;;;40.53;38.25;;;;;;;;;;5116558;27;20028;-51
2024/03/14 09:57:28;;;;;;;39.22;37.13;;;;;;;;;;5112886;27;20034;-49
2024/03/14 09:59:55;;;;;;;39.65;37.47;;;;;;;;;;5113828;27;20047;-51
2024/03/14 10:02:25;;;;;;;40.72;38.53;;;;;;;;;;5113765;27;20476;-50
2024/03/14 10:04:50;;;;;;;43.30;40.97;;;;;;;;;;5111489;27;20072;-50
2024/03/14 10:07:19;;;;;;;43.70;41.47;;;;;;;;;;5113679;27;20940;-51
2024/03/14 10:09:44;;;;;;;48.38;45.63;;;;;;;;;;5116207;27;20039;-50
2024/03/14 10:12:10;;;;;;;57.13;54.17;;;;;;;;;;5110001;27;20050;-53
2024/03/14 10:14:36;;;;;;;48.88;46.40;;;;;;;;;;5113570;27;20061;-50
2024/03/14 10:17:02;;;;;;;55.85;53.00;;;;;;;;;;5114744;27;20046;-49
2024/03/14 10:19:32;;;;;;;56.63;53.22;;;;;;;;;;5112982;27;20031;-51
2024/03/14 10:22:01;;;;;;;52.65;49.95;;;;;;;;;;5115698;27;20593;-48
2024/03/14 10:24:29;;;;;;;56.58;53.67;;;;;;;;;;5110434;27;20056;-49
2024/03/14 10:26:57;;;;;;;58.25;55.15;;;;;;;;;;5114605;27;20130;-51
2024/03/14 10:29:28;;;;;;;56.63;53.72;;;;;;;;;;5078910;27;20035;-47
2024/03/14 10:31:55;;;;;;;55.70;52.85;;;;;;;;;;5111990;27;20027;-47
2024/03/14 10:34:23;;;;;;;60.22;57.17;;;;;;;;;;5110094;27;20490;-48
2024/03/14 10:36:54;;;;;;;64.72;61.25;;;;;;;;;;5114974;27;20024;-49
2024/03/14 10:39:22;;;;;;;64.03;60.63;;;;;;;;;;5111177;27;20039;-53
2024/03/14 10:41:48;;;;;;;65.85;62.47;;;;;;;;;;5091989;27;20043;-50
2024/03/14 10:44:18;;;;;;;66.97;63.63;;;;;;;;;;5112433;27;20069;-51
2024/03/14 10:46:49;;;;;;;68.10;64.65;;;;;;;;;;5112658;27;20023;-51
2024/03/14 10:49:19;;;;;;;65.93;62.60;;;;;;;;;;5109124;27;20047;-49
2024/03/14 10:51:46;;;;;;;68.90;65.18;;;;;;;;;;5095256;28;20042;-51
2024/03/14 10:54:12;;;;;;;62.85;59.60;;;;;;;;;;5111456;28;20027;-53
2024/03/14 10:56:40;;;;;;;63.80;60.58;;;;;;;;;;5111406;28;20109;-49
2024/03/14 10:59:06;;;;;;;55.17;52.10;;;;;;;;;;5112651;28;20031;-51
2024/03/14 11:01:33;;;;;;;54.58;51.58;;;;;;;;;;5088636;28;20031;-53
2024/03/14 11:03:59;;;;;;;43.30;41.05;;;;;;;;;;5114860;27;20504;-50
2024/03/14 11:06:29;;;;;;;52.83;50.03;;;;;;;;;;5118559;27;20042;-52
2024/03/14 11:08:59;;;;;;;59.10;56.10;;;;;;;;;;5098341;27;20035;-51
2024/03/14 11:11:28;;;;;;;45.75;43.22;;;;;;;;;;5097648;27;20043;-49
2024/03/14 11:13:53;;;;;;;54.70;51.92;;;;;;;;;;5118963;27;20027;-51
2024/03/14 11:16:23;;;;;;;56.50;53.63;;;;;;;;;;5114251;27;20102;-50
2024/03/14 11:19:03;;;;;;;49.80;47.17;;;;;;;;;;5116177;27;20039;-51
2024/03/14 11:21:34;;;;;;;53.13;50.35;;;;;;;;;;5115975;27;20042;-49
2024/03/14 11:24:09;;;;;;;50.85;48.20;;;;;;;;;;5115668;27;20045;-53
2024/03/14 11:26:37;;;;;;;60.65;57.50;;;;;;;;;;5114172;27;20032;-52
2024/03/14 11:29:04;;;;;;;45.75;43.35;;;;;;;;;;5112356;27;20042;-53
2024/03/14 11:31:42;;;;;;;43.17;40.88;;;;;;;;;;5114060;27;20134;-51
2024/03/14 11:34:15;;;;;;;46.92;44.55;;;;;;;;;;5118294;27;20088;-52
2024/03/14 11:36:40;;;;;;;41.78;39.47;;;;;;;;;;5117564;27;20027;-54
2024/03/14 11:39:15;;;;;;;42.10;39.80;;;;;;;;;;5116458;27;20100;-53
2024/03/14 11:41:40;;;;;;;43.28;40.97;;;;;;;;;;5116675;27;20094;-49
2024/03/14 11:44:15;;;;;;;37.15;35.25;;;;;;;;;;5114713;27;20027;-52
2024/03/14 11:46:40;;;;;;;39.20;37.10;;;;;;;;;;5100934;27;20032;-52
2024/03/14 11:49:16;;;;;;;41.05;38.88;;;;;;;;;;5118444;27;20489;-54
2024/03/14 11:51:44;;;;;;;76.28;72.40;;;;;;;;;;5100488;27;20050;-52
2024/03/14 11:54:10;;;;;;;40.78;38.58;;;;;;;;;;5115452;27;20058;-50
2024/03/14 11:56:39;;;;;;;39.53;37.42;;;;;;;;;;5100566;27;20027;-55
2024/03/14 11:59:04;;;;;;;36.75;34.83;;;;;;;;;;5119483;27;20126;-54
2024/03/14 12:01:31;;;;;;;54.17;51.28;;;;;;;;;;5119302;27;20171;-53
2024/03/14 12:03:57;;;;;;;63.38;60.10;;;;;;;;;;5116629;27;20039;-52
2024/03/14 12:06:25;;;;;;;58.78;55.78;;;;;;;;;;5118957;27;20037;-50
2024/03/14 12:08:51;;;;;;;59.45;56.33;;;;;;;;;;5118343;27;20031;-55
2024/03/14 12:11:18;;;;;;;47.15;44.60;;;;;;;;;;5115508;27;20027;-52
2024/03/14 12:13:52;;;;;;;73.72;69.95;;;;;;;;;;5100090;28;20023;-52
2024/03/14 12:16:19;;;;;;;86.35;82.03;;;;;;;;;;5115944;27;20027;-53
2024/03/14 12:18:49;;;;;;;68.20;64.35;;;;;;;;;;5116487;27;20023;-55
2024/03/14 12:21:15;;;;;;;60.03;57.00;;;;;;;;;;5114304;27;20042;-50
2024/03/14 12:23:49;;;;;;;83.25;78.97;;;;;;;;;;5114476;27;20031;-59
2024/03/14 12:26:17;;;;;;;88.53;84.10;;;;;;;;;;5117068;27;20031;-52
2024/03/14 12:28:43;;;;;;;66.32;62.97;;;;;;;;;;5117079;27;20024;-50
2024/03/14 12:31:12;;;;;;;87.47;83.07;;;;;;;;;;5115744;27;20036;-53
2024/03/14 12:33:39;;;;;;;89.03;84.57;;;;;;;;;;5114847;27;20050;-51
2024/03/14 12:36:06;;;;;;;66.93;63.53;;;;;;;;;;5117118;27;20035;-50
2024/03/14 12:38:32;;;;;;;79.05;74.95;;;;;;;;;;5114068;27;20039;-54
2024/03/14 12:40:58;;;;;;;67.28;63.88;;;;;;;;;;5114346;27;20035;-56
2024/03/14 12:43:26;;;;;;;73.10;69.47;;;;;;;;;;5115142;27;20023;-55
2024/03/14 12:45:53;;;;;;;98.47;93.38;;;;;;;;;;5114615;27;20175;-52
2024/03/14 12:48:19;;;;;;;91.28;86.70;;;;;;;;;;5113594;27;20198;-54
2024/03/14 12:50:45;;;;;;;89.05;84.50;;;;;;;;;;5096855;27;20031;-56
2024/03/14 12:53:17;;;;;;;96.93;92.13;;;;;;;;;;5114707;27;20057;-59
2024/03/14 12:55:52;;;;;;;81.88;77.78;;;;;;;;;;5114523;27;20039;-59
2024/03/14 12:58:21;;;;;;;73.05;69.40;;;;;;;;;;5116130;27;20031;-59
2024/03/14 13:00:54;;;;;;;61.30;58.17;;;;;;;;;;5116355;27;20417;-56
2024/03/14 13:03:22;;;;;;;78.38;74.45;;;;;;;;;;5096617;27;20054;-54
2024/03/14 13:05:59;;;;;;;81.07;77.03;;;;;;;;;;5117352;27;20039;-55
2024/03/14 13:08:26;;;;;;;65.95;62.65;;;;;;;;;;5115257;27;20038;-53
2024/03/14 13:11:24;;;;;;;65.57;61.67;;;;;;;;;;5115746;27;20032;-55
2024/03/14 13:13:49;;;;;;;70.25;66.70;;;;;;;;;;5078810;27;20474;-54
2024/03/14 13:16:23;;;;;;;72.22;68.38;;;;;;;;;;5119876;27;20034;-55
2024/03/14 13:18:53;;;;;;;87.95;83.60;;;;;;;;;;5078405;27;20075;-55
2024/03/14 13:21:19;;;;;;;60.00;57.00;;;;;;;;;;5119040;27;20095;-54
2024/03/14 13:23:45;;;;;;;65.63;62.33;;;;;;;;;;5112944;27;20100;-54
2024/03/14 13:26:14;;;;;;;75.90;72.13;;;;;;;;;;5095973;27;20034;-53
2024/03/14 13:28:40;;;;;;;67.75;64.32;;;;;;;;;;5112103;27;20035;-55
2024/03/14 13:31:08;;;;;;;94.75;90.05;;;;;;;;;;5117318;27;20084;-52
2024/03/14 13:33:34;;;;;;;108.97;103.57;;;;;;;;;;5112547;27;20031;-58
2024/03/14 13:36:00;;;;;;;101.50;96.45;;;;;;;;;;5110111;27;20046;-58
2024/03/14 13:38:26;;;;;;;68.85;65.32;;;;;;;;;;5114653;27;20031;-59
2024/03/14 13:40:52;;;;;;;60.17;57.10;;;;;;;;;;5113502;27;20132;-59
2024/03/14 13:43:18;;;;;;;72.07;68.47;;;;;;;;;;5112235;27;20795;-59
2024/03/14 13:45:44;;;;;;;51.05;48.45;;;;;;;;;;5116228;27;20035;-58
2024/03/14 13:48:09;;;;;;;51.00;48.30;;;;;;;;;;5114343;27;20031;-53
2024/03/14 13:50:40;;;;;;;55.38;52.55;;;;;;;;;;5114728;27;20038;-54
2024/03/14 13:53:06;;;;;;;54.35;51.60;;;;;;;;;;5116394;27;20027;-52
2024/03/14 13:55:36;;;;;;;52.53;49.88;;;;;;;;;;5114287;27;20032;-58
2024/03/14 13:58:06;;;;;;;50.33;47.58;;;;;;;;;;5114615;27;20050;-59
2024/03/14 14:00:46;;;;;;;54.90;52.08;;;;;;;;;;5115556;27;20472;-58
2024/03/14 14:03:19;;;;;;;52.22;49.55;;;;;;;;;;5113476;27;20040;-58
2024/03/14 14:05:45;;;;;;;54.72;51.95;;;;;;;;;;5095862;27;20553;-59